Timeline UpdatesTrip UpdatesNews PostsPvt PostsTravel TipsAdmin PostsConv PostsFollowed PostsChat RequestsBlog PostsPNR Posts

Disclaimer
Search
 
 
Fri Apr 18, 2014 21:14:59 ISTHomeTrainsΣChainsAtlasPNRForumGalleryNewsFAQTripsMembersLoginFeedback
No Recent News for this Train
Other Trains in the News **new
Latest...
.
Fri Jul 29, 2011 (03:19AM)
⇐ Return Journey: Train# 13009-Slip

23010/Doon Express Slip

Jul 02 2013 (7:49PM)
Change Departure Station:
Change Arrival Station:
Post a Train Travel TipPost a Train Travel Tip **new
Post a Comment/Question/Picture/VideoPost a Comment/Question/Picture/Video
Pantry/Catering
???
RSA - Rake Sharing
Rake/Coach Composition
S1(From PNR Blogs)
Loco
News    PNR    Forum    Time-Table    Availability    Fare Chart    Map    Arr/Dep History    Trips    Gallery    ΣChains    X/O    Timeline    
Travel Time: 33h 0m    67 halts    Distance: 1464 km    Avg Speed: 44 km/hr
Type: Mail/Express
Zone: ER/Eastern
Departs @ 21:55
Platform# 1
SMTWTFS
Kotdwar/KTW 
Arrives @ 06:55 +2 nights
Platform# 11
SMTWTFS
Kolkata Howrah Junction/HWH 

67 halts. 260 intermediate Stations between Kotdwar and Kolkata Howrah Junction

Show ALL intermediate Stations  Show Old Time-Table

#CodeStation NameX/OArrivesAvgDepartsAvgHaltPFDay#KmSpeedElevZoneAddress
1KTW»Kotdwar (1)»  -21:55-110.043369mNRKotdwar, Uttarakhand
2SNXSaneh Road  22:08-22:10-2m--19.430314mNRSaneh Road, Uttar Pradesh
3NBDNajibabad Junction (3)  22:40-00:05-85m1124.384269mNRNajibabad, Uttar Pradesh
4NGGNagina (3)X  00:21-00:23-2m--246.872247mNRNagina, Uttar Pradesh
5DPRDhampur  00:37-00:39-2m--263.563236mNRDhampur, Uttar Pradesh
6SEOSeoharaX  00:52-00:54-2m--277.345224mNRSeohara, Uttar Pradesh
7MBMoradabad Junction (7)XOO  01:55-02:05-10m12123.350201mNRMoradabad, Uttar Pradesh
8RMURampur Junction (3)XO  02:38-02:40-2m--2150.548190mNRRampur, Uttar Pradesh
9BEBareilly Junction (4)X  03:58-04:03-5m--2213.667174mNRBareilly, Uttar Pradesh
10TLHTilharX  04:50-04:52-2m--2265.952163mNRTilhar, Uttar Pradesh
11SPNShahjahanpur Junction (3)  05:13-05:16-3m--2284.155156mNRShahjahanpur, Uttar Pradesh
12ROZARoza Junction (4)  05:24-05:26-2m--2291.474156mNRShahjahanpur, Uttar Pradesh
13AJIAnjhi Shahabad  05:45-05:47-2m--2314.877148mNRAnjhi Shahabad, Uttar Pradesh
14HRIHardoi (5)X  06:12-06:14-2m32347.071146mNRHardoi, Uttar Pradesh
15BLMBalamu Junction (4)  06:42-06:44-2m--2380.064139mNRBalamau, Uttar Pradesh
16SANSandila (3)X  07:03-07:05-2m--2400.339132mNRSandila, Uttar Pradesh
17LKOLucknow Charbagh (9)X  08:20-08:35-15m12448.840123mNRCharbagh, Uttar Pradesh
18BBKBarabanki Junction (4)X  09:18-09:20-2m--2477.461122mNRPin-225001, Uttar Pradesh
19SGJSafdarGanj  09:38-09:40-2m--2495.579116mNRFaizabad Rd, Uttar Pradesh
20DYDDaryabad  09:55-09:57-2m--2515.473116mNRFaizabad Rd, Uttar Pradesh
21RDLRudauli (2)  10:16-10:18-2m--2538.576112mNRRudauli, Uttar Pradesh
22SLWSohwal  10:36-10:38-2m--2561.334107mNRFaizabad Rd, Uttar Pradesh
23FDFaizabad Junction (5)  11:05-11:10-5m--2576.614104mNRFaizabad, Uttar Pradesh
24ACNDAcharya Narendra Dev Nagar  11:19-11:21-2m--2578.830104mNRFaizabad, Uttar Pradesh
25AYAyodhya Junction (3)X  11:30-11:32-2m--2583.36898mNRAyodhya, Uttar Pradesh
26GGJGoshainGanj (3)  12:00-12:02-2m--2615.06798mNRGoshainganj, Uttar Pradesh
27ABPAkbarpur (2)X  12:22-12:26-4m--2637.27292mNRAkbarpur, Uttar Pradesh
28MLPRMalipur (2)XOO  12:42-12:44-2m--2656.34892mNRMalipur, Uttar Pradesh
29SHGShahganj Junction (4)XO  13:15-13:20-5m--2681.35890mNRShahganj, Uttar Pradesh
30KSKheta Sarai (1)  13:31-13:33-2m12692.06288mNRKheta Sarai, Uttar Pradesh
31JNUJaunpur Junction (5)X  13:55-13:57-2m--2714.73583mNRJaunpur, Uttar Pradesh
32ZBDZafarabad Junction (4)  14:08-14:10-2m--2721.13883mNRNational Highway 56, Uttar Pradesh
33JLLJalalGanj (2)  14:29-14:31-2m--2733.13687mNRJalalganj Railway Station, Uttar Pradesh
34KSFKhalispur (2)O  14:50-14:52-2m--2744.54083mNRPhulpur, Uttar Pradesh
35BTPBabatpur (2)XO  15:06-15:08-2m--2753.82484mNRSatomahua-Mangari Rd, Uttar Pradesh
36BSBVaranasi Junction (9)X  15:55-16:10-15m--2772.32382mNRVaranasi, Uttar Pradesh
37KEIKashi (3)X  16:24-16:26-2m--2777.71585mNRVaranasi, Uttar Pradesh
38MGSMughal Sarai Junction (8)X  17:10-17:30-20m22788.66583mECRMughalsarai 232101, Uttar Pradesh
39CDMRChandauli Majhwar  17:46-17:48-2m--2806.07280mECRNational Highway 2, Uttar Pradesh
40SYJSaidraja  17:55-17:57-2m--2814.46280mECRSaiyedraja, Uttar Pradesh
41KMSKaramnasa  18:05-18:07-2m--2822.65878mECRNational Highway 2, Uttar Pradesh
42DGODurgauti  18:19-18:21-2m--2834.26776mECRDistt Kaimur, Bihar
43BBUBhabua Road (4)  18:29-18:31-2m--2843.28480mECR06187-222222, Bihar
44KTQKudra (2)  18:47-18:49-2m--2865.58092mECRKudra, Bihar
45SSMSasaram Junction (4)  19:08-19:10-2m--2890.859111mECR06184-222051, Bihar
46DOSDehri On Sone (6)  19:28-19:30-2m--2908.449114mECRRohtas(06184-253154), Bihar
47SEBSon Nagar Junction (4)X  19:37-19:39-2m--2914.273110mECRBarun, Bihar
48AUBRAnugraha Narayan Road (4)O  19:48-19:50-2m--2925.054104mECR06186-285271, Bihar
49RFJRafiGanj (4)XOO  20:24-20:26-2m--2955.954102mECRRafiganj, Bihar
50GRRUGuraruX  20:44-20:51-7m--2972.050114mECRGuraru, Bihar
51GAYAGaya Junction (9)X  21:17-21:27-10m--2993.539117mECR0631-2220283, Bihar
52TKNTankuppa  21:58-22:00-2m--21013.567127mECRState Highway 70, Bihar
53PRPPaharpurX  22:11-22:13-2m--21025.869150mECRGaya, Bihar
54KQRKoderma Junction (7)  22:51-22:53-2m--21069.879399mECR06534-222410 Koderma, Jharkhand
55PSBParsabad (3)  23:13-23:15-2m--21096.282346mECRNational Highway 2, Jharkhand
56HZDHazaribagh Road (3)  23:31-23:33-2m--21118.281330mECRHazaribagh, Jharkhand
57PNMEParasnath (5)  23:53-23:55-2m--21145.247282mECRGiridih 06532-233419, Jharkhand
58GMONetaji SC Bose Gomoh Junction (6)X  00:18-00:28-10m231163.343239mECRGomoh, Jharkhand
59DHNDhanbad Junction (8)X  01:10-01:20-10m--31193.172235mECR2319801. Div. HQ ECR, Jharkhand
60BRRBarakar (2)X  01:54-01:56-2m--31234.143129mERDist. Bardhaman, West Bengal
61ASNAsansol Junction (7)X  02:20-02:25-5m--31251.372113mERDist - bardhaman, West Bengal
62RNGRaniGanj (4)X  02:40-02:42-2m--31269.46692mERRaniganj, West Bengal
63DGRDurgapur (5)  03:04-03:06-2m--31293.78571mERDurgapur, West Bengal
64PANPanagarh (4)  03:17-03:19-2m--31309.34670mERKaksa, West Bengal
65BWNBarddhaman Junction (8)  04:22-04:27-5m--31357.25534mERDist - Barddhaman, West Bengal
66BDCBandel Junction (7)  05:40-05:45-5m--31424.55814mERdist - HOOGHLY, West Bengal
67CGRChandan Nagar (3)  05:52-05:54-2m--31431.36116mERDist -HOOGHLY - 712136, West Bengal
68SRPSerampore (4)  06:07-06:09-2m--31444.42611mERdist - hooghly, West Bengal
69HWH•Kolkata Howrah Junction (23)•  06:55--1131464.1-10mERHowrah 711101, West Bengal
Scroll to Top
Scroll to Bottom